createdAt,value
2022-08-07T00:02:37.562Z,35.29
2022-08-07T00:05:14.280Z,35.52
2022-08-07T00:08:05.024Z,35.89
2022-08-07T00:10:47.917Z,35.74
2022-08-07T00:13:30.692Z,35.62
2022-08-07T00:16:01.203Z,36.08
2022-08-07T00:18:36.896Z,36.13
2022-08-07T00:21:57.361Z,35.90
2022-08-07T00:24:18.740Z,35.99
2022-08-07T00:27:09.461Z,36.11
2022-08-07T00:29:57.838Z,36.15
2022-08-07T00:32:41.682Z,36.36
2022-08-07T00:35:15.044Z,36.50
2022-08-07T00:37:48.297Z,36.47
2022-08-07T00:40:39.638Z,36.67
2022-08-07T00:44:01.339Z,36.91
2022-08-07T00:46:26.387Z,36.85
2022-08-07T00:48:56.187Z,36.76
2022-08-07T00:51:57.019Z,36.71
2022-08-07T00:54:37.811Z,37.22
2022-08-07T00:57:13.551Z,36.97
2022-08-07T00:59:52.866Z,37.36
2022-08-07T01:02:28.252Z,37.82
2022-08-07T01:05:01.264Z,37.57
2022-08-07T01:07:33.044Z,36.99
2022-08-07T01:10:06.350Z,37.32
2022-08-07T01:12:53.091Z,37.32
2022-08-07T01:15:35.782Z,37.92
2022-08-07T01:18:11.056Z,37.83
2022-08-07T01:20:57.372Z,38.11
2022-08-07T01:23:36.422Z,38.05
2022-08-07T01:26:11.979Z,37.86
2022-08-07T01:28:45.851Z,37.47
2022-08-07T01:31:15.503Z,37.45
2022-08-07T01:33:53.515Z,37.33
2022-08-07T01:36:33.824Z,37.33
2022-08-07T01:39:01.975Z,37.14
2022-08-07T01:42:07.205Z,37.32
2022-08-07T01:44:27.963Z,37.65
2022-08-07T01:46:55.475Z,37.10
2022-08-07T01:49:23.330Z,37.67
2022-08-07T01:52:02.472Z,37.48
2022-08-07T01:54:37.601Z,37.94
2022-08-07T01:57:09.659Z,37.83
2022-08-07T02:00:00.842Z,37.94
2022-08-07T02:03:18.938Z,37.56
2022-08-07T02:05:48.380Z,37.58
2022-08-07T02:08:26.782Z,37.80
2022-08-07T02:10:59.629Z,37.62
2022-08-07T02:13:56.347Z,37.86
2022-08-07T02:16:19.782Z,37.65
2022-08-07T02:18:53.095Z,37.79
2022-08-07T02:21:24.443Z,37.97
2022-08-07T02:23:54.143Z,37.73
2022-08-07T02:26:32.395Z,37.86
2022-08-07T02:29:13.745Z,38.17
2022-08-07T02:31:44.624Z,38.09
2022-08-07T02:34:19.262Z,38.20
2022-08-07T02:36:48.722Z,37.98
2022-08-07T02:39:42.908Z,38.50
2022-08-07T02:42:10.020Z,38.22
2022-08-07T02:44:47.795Z,38.35
2022-08-07T02:47:19.502Z,38.47
2022-08-07T02:49:57.777Z,38.70
2022-08-07T02:52:34.702Z,38.84
2022-08-07T02:55:27.498Z,38.78
2022-08-07T02:58:03.162Z,38.55
2022-08-07T03:00:39.202Z,38.76
2022-08-07T03:03:13.488Z,38.70
2022-08-07T03:05:44.123Z,38.60
2022-08-07T03:08:14.240Z,38.68
2022-08-07T03:10:46.466Z,38.57
2022-08-07T03:13:19.536Z,38.76
2022-08-07T03:15:56.491Z,38.99
2022-08-07T03:18:34.999Z,39.01
2022-08-07T03:21:08.603Z,39.02
2022-08-07T03:24:19.761Z,39.17
2022-08-07T03:26:33.340Z,39.26
2022-08-07T03:29:10.985Z,39.27
2022-08-07T03:31:46.607Z,38.96
2022-08-07T03:34:22.308Z,39.15
2022-08-07T03:36:53.813Z,39.02
2022-08-07T03:39:46.308Z,39.10
2022-08-07T03:42:13.570Z,39.08
2022-08-07T03:44:41.707Z,39.26
2022-08-07T03:47:15.786Z,38.93
2022-08-07T03:49:51.873Z,38.90
2022-08-07T03:52:27.545Z,39.12
2022-08-07T03:55:07.816Z,38.83
2022-08-07T03:58:32.706Z,39.57
2022-08-07T04:00:33.532Z,39.49
2022-08-07T04:03:04.684Z,39.39
2022-08-07T04:05:40.212Z,39.36
2022-08-07T04:08:16.107Z,39.90
2022-08-07T04:10:54.712Z,39.67
2022-08-07T04:14:09.273Z,40.00
2022-08-07T04:16:31.093Z,39.67
2022-08-07T04:19:12.681Z,39.71
2022-08-07T04:21:59.068Z,40.01
2022-08-07T04:24:39.236Z,40.14
2022-08-07T04:27:20.278Z,39.69
2022-08-07T04:30:01.786Z,39.79
2022-08-07T04:32:34.445Z,39.83
2022-08-07T04:35:11.288Z,39.93
2022-08-07T04:38:03.256Z,39.61
2022-08-07T04:40:34.189Z,39.64
2022-08-07T04:43:03.584Z,39.71
2022-08-07T04:46:12.493Z,39.83
2022-08-07T04:49:02.341Z,39.96
2022-08-07T04:52:04.495Z,39.67
2022-08-07T04:54:36.764Z,40.09
2022-08-07T04:58:09.809Z,39.97
2022-08-07T05:00:49.455Z,40.12
2022-08-07T05:04:00.317Z,40.25
2022-08-07T05:06:43.748Z,40.28
2022-08-07T05:09:45.824Z,40.38
2022-08-07T05:12:26.994Z,39.92
2022-08-07T05:15:23.449Z,40.57
2022-08-07T05:18:00.569Z,40.70
2022-08-07T05:20:35.258Z,40.27
2022-08-07T05:23:15.690Z,40.87
2022-08-07T05:26:10.597Z,40.49
2022-08-07T05:28:58.510Z,41.70
2022-08-07T05:31:34.972Z,41.17
2022-08-07T05:34:11.067Z,40.26
2022-08-07T05:36:52.687Z,42.08
2022-08-07T05:40:13.365Z,40.77
2022-08-07T05:42:34.507Z,40.49
2022-08-07T05:45:14.290Z,39.99
2022-08-07T05:48:02.191Z,40.30
2022-08-07T05:50:31.982Z,39.92
2022-08-07T05:53:04.067Z,41.29
2022-08-07T05:56:03.212Z,41.25
2022-08-07T05:58:30.246Z,40.29
2022-08-07T06:01:11.318Z,40.05
2022-08-07T06:03:53.950Z,39.38
2022-08-07T06:06:29.864Z,39.63
2022-08-07T06:09:08.819Z,39.16
2022-08-07T06:11:38.292Z,39.92
2022-08-07T06:14:11.988Z,39.23
2022-08-07T06:16:56.241Z,39.48
2022-08-07T06:19:51.844Z,38.99
2022-08-07T06:22:23.493Z,38.92
2022-08-07T06:24:58.453Z,39.93
2022-08-07T06:27:44.403Z,39.77
2022-08-07T06:30:35.146Z,38.74
2022-08-07T06:33:05.104Z,38.53
2022-08-07T06:35:45.391Z,37.55
2022-08-07T06:38:20.037Z,36.91
2022-08-07T06:40:52.842Z,37.13
2022-08-07T06:43:23.792Z,37.60
2022-08-07T06:45:51.736Z,38.69
2022-08-07T06:48:24.846Z,37.48
2022-08-07T06:50:59.339Z,36.65
2022-08-07T06:55:29.550Z,38.70
2022-08-07T06:56:49.474Z,37.43
2022-08-07T07:00:13.058Z,38.04
2022-08-07T07:02:53.752Z,38.99
2022-08-07T07:06:04.972Z,36.97
2022-08-07T07:08:18.635Z,36.88
2022-08-07T07:10:56.438Z,35.95
2022-08-07T07:13:58.248Z,35.18
2022-08-07T07:16:33.914Z,35.79
2022-08-07T07:19:34.038Z,36.07
2022-08-07T07:22:05.029Z,35.87
2022-08-07T07:24:56.678Z,35.65
2022-08-07T07:27:35.658Z,35.07
2022-08-07T07:30:38.129Z,34.65
2022-08-07T07:33:11.526Z,34.20
2022-08-07T07:35:54.110Z,32.96
2022-08-07T07:38:31.399Z,34.20
2022-08-07T07:41:02.720Z,34.44
2022-08-07T07:43:47.829Z,34.11
2022-08-07T07:46:38.487Z,33.11
2022-08-07T07:50:33.453Z,33.23
2022-08-07T07:52:06.961Z,32.24
2022-08-07T07:54:50.459Z,32.21
2022-08-07T07:57:51.539Z,31.38
2022-08-07T08:00:09.682Z,32.44
2022-08-07T08:02:38.992Z,31.65
2022-08-07T08:05:27.818Z,31.43
2022-08-07T08:08:34.602Z,31.61
2022-08-07T08:11:00.775Z,31.22
2022-08-07T08:13:36.745Z,32.06
2022-08-07T08:16:25.155Z,31.01
2022-08-07T08:18:56.759Z,32.62
2022-08-07T08:21:55.993Z,33.42
2022-08-07T08:25:18.821Z,31.57
2022-08-07T08:27:56.669Z,33.23
2022-08-07T08:30:27.208Z,30.73
2022-08-07T08:32:58.756Z,31.27
2022-08-07T08:35:39.122Z,29.78
2022-08-07T08:38:17.140Z,33.31
2022-08-07T08:40:56.066Z,30.41
2022-08-07T08:43:56.042Z,30.83
2022-08-07T08:46:49.870Z,31.00
2022-08-07T08:50:05.193Z,31.01
2022-08-07T08:52:54.177Z,31.44
2022-08-07T08:55:53.434Z,29.36
2022-08-07T08:58:28.779Z,29.79
2022-08-07T09:01:15.938Z,30.33
2022-08-07T09:03:55.700Z,31.97
2022-08-07T09:06:52.865Z,29.64
2022-08-07T09:09:56.908Z,30.34
2022-08-07T09:12:53.034Z,30.05
2022-08-07T09:16:25.154Z,27.55
2022-08-07T09:18:47.342Z,26.88
2022-08-07T09:21:57.838Z,30.20
2022-08-07T09:24:33.365Z,28.65
2022-08-07T09:27:23.291Z,27.28
2022-08-07T09:30:04.598Z,26.68
2022-08-07T09:32:47.414Z,27.44
2022-08-07T09:36:00.843Z,26.82
2022-08-07T09:38:53.445Z,28.29
2022-08-07T09:42:05.991Z,28.38
2022-08-07T09:47:52.125Z,27.08
2022-08-07T09:48:11.564Z,26.74
2022-08-07T09:52:09.229Z,25.85
2022-08-07T09:54:03.801Z,24.35
2022-08-07T09:56:53.270Z,25.88
2022-08-07T10:00:01.452Z,27.47
2022-08-07T10:02:55.468Z,26.50
2022-08-07T10:06:05.471Z,26.95
2022-08-07T10:08:58.120Z,26.20
2022-08-07T10:12:00.994Z,25.20
2022-08-07T10:14:54.222Z,23.30
2022-08-07T10:18:01.027Z,23.62
2022-08-07T10:20:50.321Z,28.21
2022-08-07T10:24:06.304Z,24.07
2022-08-07T10:26:31.377Z,25.90
2022-08-07T10:29:16.768Z,27.41
2022-08-07T10:32:36.979Z,23.52
2022-08-07T10:35:25.820Z,21.89
2022-08-07T10:38:36.102Z,24.68
2022-08-07T10:41:51.470Z,25.80
2022-08-07T10:44:54.548Z,25.60
2022-08-07T10:47:52.711Z,23.83
2022-08-07T10:50:32.348Z,24.89
2022-08-07T10:53:11.580Z,25.66
2022-08-07T10:55:50.718Z,23.63
2022-08-07T10:59:08.715Z,23.89
2022-08-07T11:02:33.256Z,22.48
2022-08-07T11:05:19.599Z,22.00
2022-08-07T11:08:06.967Z,23.45
2022-08-07T11:11:00.449Z,21.72
2022-08-07T11:14:46.354Z,20.95
2022-08-07T11:17:07.236Z,20.91
2022-08-07T11:19:55.584Z,24.28
2022-08-07T11:22:37.114Z,25.41
2022-08-07T11:25:48.225Z,24.69
2022-08-07T11:28:55.267Z,22.39
2022-08-07T11:31:45.103Z,24.30
2022-08-07T11:34:35.168Z,20.65
2022-08-07T11:37:20.176Z,24.15
2022-08-07T11:40:03.919Z,22.17
2022-08-07T11:42:55.857Z,23.81
2022-08-07T11:45:36.484Z,22.93
2022-08-07T11:48:35.762Z,24.07
2022-08-07T11:51:50.779Z,21.77
2022-08-07T11:55:01.268Z,19.11
2022-08-07T11:58:00.793Z,21.21
2022-08-07T12:01:02.670Z,24.03
2022-08-07T12:04:09.147Z,21.90
2022-08-07T12:07:07.888Z,20.22
2022-08-07T12:09:51.629Z,20.29
2022-08-07T12:12:28.711Z,19.99
2022-08-07T12:15:08.157Z,19.39
2022-08-07T12:17:58.497Z,16.93
2022-08-07T12:20:58.245Z,16.41
2022-08-07T12:24:05.957Z,20.20
2022-08-07T12:26:59.154Z,20.79
2022-08-07T12:29:47.694Z,18.18
2022-08-07T12:33:00.695Z,17.20
2022-08-07T12:35:36.252Z,19.04
2022-08-07T12:38:11.679Z,18.43
2022-08-07T12:41:10.145Z,21.58
2022-08-07T12:44:02.038Z,20.88
2022-08-07T12:46:50.784Z,16.52
2022-08-07T12:49:53.296Z,15.44
2022-08-07T12:52:46.678Z,16.47
2022-08-07T12:55:41.370Z,18.82
2022-08-07T12:58:20.139Z,17.84
2022-08-07T13:01:27.941Z,15.00
2022-08-07T13:04:34.010Z,15.73
2022-08-07T13:08:14.184Z,16.68
2022-08-07T13:10:51.540Z,19.23
2022-08-07T13:14:02.515Z,21.76
2022-08-07T13:16:55.745Z,18.85
2022-08-07T13:19:50.728Z,20.76
2022-08-07T13:22:52.656Z,19.72
2022-08-07T13:25:50.737Z,20.64
2022-08-07T13:28:34.255Z,18.79
2022-08-07T13:31:25.501Z,18.89
2022-08-07T13:34:32.973Z,16.68
2022-08-07T13:37:20.124Z,21.06
2022-08-07T13:40:35.530Z,16.60
2022-08-07T13:43:11.989Z,15.21
2022-08-07T13:46:10.948Z,16.83
2022-08-07T13:48:38.662Z,16.57
2022-08-07T13:51:27.027Z,17.33
2022-08-07T13:54:07.944Z,16.59
2022-08-07T13:56:41.197Z,17.26
2022-08-07T13:59:27.163Z,16.28
2022-08-07T14:02:10.809Z,17.31
2022-08-07T14:04:55.085Z,14.18
2022-08-07T14:08:00.667Z,16.51
2022-08-07T14:10:42.315Z,17.38
2022-08-07T14:13:18.822Z,17.96
2022-08-07T14:16:17.119Z,17.87
2022-08-07T14:18:57.647Z,18.34
2022-08-07T14:22:03.205Z,16.63
2022-08-07T14:24:53.509Z,16.07
2022-08-07T14:28:12.330Z,14.11
2022-08-07T14:30:32.890Z,14.65
2022-08-07T14:33:05.360Z,12.68
2022-08-07T14:35:57.476Z,15.47
2022-08-07T14:38:30.784Z,18.00
2022-08-07T14:41:14.659Z,19.07
2022-08-07T14:43:59.432Z,15.71
2022-08-07T14:46:36.404Z,16.15
2022-08-07T14:49:56.133Z,17.48
2022-08-07T14:54:49.345Z,18.35
2022-08-07T14:57:25.443Z,20.34
2022-08-07T15:00:30.318Z,18.32
2022-08-07T15:03:16.457Z,18.37
2022-08-07T15:06:03.922Z,15.34
2022-08-07T15:08:50.007Z,16.01
2022-08-07T15:14:22.899Z,13.58
2022-08-07T15:17:12.635Z,12.26
2022-08-07T15:26:20.633Z,17.48
2022-08-07T15:31:58.075Z,16.16
2022-08-07T15:40:34.838Z,15.21
2022-08-07T15:46:32.445Z,19.94
2022-08-07T15:49:14.622Z,16.81
2022-08-07T15:54:39.729Z,19.68
2022-08-07T15:57:39.241Z,17.30
2022-08-07T16:00:04.450Z,16.66
2022-08-07T16:02:40.806Z,19.00
2022-08-07T16:05:23.134Z,16.98
2022-08-07T16:08:32.212Z,15.22
2022-08-07T16:11:25.375Z,16.52
2022-08-07T16:14:03.124Z,17.31
2022-08-07T16:17:02.849Z,15.37
2022-08-07T16:20:33.155Z,14.26
2022-08-07T16:23:05.365Z,14.53
2022-08-07T16:25:54.299Z,15.35
2022-08-07T16:30:07.091Z,17.92
2022-08-07T16:32:01.541Z,18.88
2022-08-07T16:34:37.595Z,17.99
2022-08-07T16:38:02.763Z,17.63
2022-08-07T16:40:51.196Z,18.12
2022-08-07T16:44:40.534Z,17.76
2022-08-07T16:47:51.394Z,15.73
2022-08-07T16:51:20.975Z,15.69
2022-08-07T16:54:02.837Z,14.89
2022-08-07T16:56:50.214Z,16.12
2022-08-07T16:59:46.722Z,17.31
2022-08-07T17:02:52.249Z,18.93
2022-08-07T17:06:28.357Z,19.67
2022-08-07T17:09:09.485Z,17.41
2022-08-07T17:12:05.053Z,16.43
2022-08-07T17:14:47.230Z,17.00
2022-08-07T17:17:47.363Z,17.96
2022-08-07T17:20:32.810Z,17.96
2022-08-07T17:23:36.531Z,18.89
2022-08-07T17:26:05.981Z,16.48
2022-08-07T17:29:07.874Z,16.27
2022-08-07T17:31:44.239Z,15.73
2022-08-07T17:34:57.106Z,15.47
2022-08-07T17:38:05.974Z,16.98
2022-08-07T17:42:00.909Z,18.45
2022-08-07T17:44:41.385Z,18.38
2022-08-07T17:48:12.668Z,18.13
2022-08-07T17:51:01.698Z,18.76
2022-08-07T17:54:02.434Z,18.24
2022-08-07T17:56:52.495Z,17.64
2022-08-07T17:59:35.893Z,17.61
2022-08-07T18:02:31.425Z,19.50
2022-08-07T18:05:24.658Z,19.13
2022-08-07T18:08:25.689Z,19.24
2022-08-07T18:12:08.389Z,20.93
2022-08-07T18:14:23.934Z,18.54
2022-08-07T18:17:01.439Z,19.30
2022-08-07T18:21:02.499Z,20.21
2022-08-07T18:23:43.481Z,19.89
2022-08-07T18:26:26.366Z,20.37
2022-08-07T18:30:04.685Z,20.41
2022-08-07T18:32:13.248Z,19.87
2022-08-07T18:35:15.832Z,20.22
2022-08-07T18:38:55.880Z,20.84
2022-08-07T18:41:20.574Z,21.17
2022-08-07T18:44:27.439Z,21.42
2022-08-07T18:47:06.196Z,21.34
2022-08-07T18:50:39.119Z,21.39
2022-08-07T18:53:17.471Z,21.62
2022-08-07T18:56:31.561Z,22.10
2022-08-07T18:59:46.988Z,22.95
2022-08-07T19:02:42.702Z,22.16
2022-08-07T19:05:16.235Z,23.28
2022-08-07T19:08:13.967Z,23.03
2022-08-07T19:10:51.697Z,23.24
2022-08-07T19:13:51.704Z,23.63
2022-08-07T19:17:01.003Z,22.86
2022-08-07T19:19:58.586Z,23.94
2022-08-07T19:22:48.248Z,23.87
2022-08-07T19:26:24.368Z,23.91
2022-08-07T19:28:58.312Z,23.94
2022-08-07T19:31:59.769Z,24.40
2022-08-07T19:34:34.145Z,24.24
2022-08-07T19:37:10.194Z,24.96
2022-08-07T19:39:57.724Z,24.85
2022-08-07T19:42:40.259Z,24.51
2022-08-07T19:46:05.909Z,24.96
2022-08-07T19:48:42.207Z,25.41
2022-08-07T19:51:20.480Z,25.54
2022-08-07T19:54:32.447Z,25.41
2022-08-07T19:57:51.930Z,25.76
2022-08-07T19:59:46.465Z,25.82
2022-08-07T20:02:33.569Z,27.38
2022-08-07T20:05:10.129Z,26.75
2022-08-07T20:07:48.083Z,26.85
2022-08-07T20:10:52.377Z,27.13
2022-08-07T20:13:33.799Z,27.65
2022-08-07T20:16:03.962Z,27.21
2022-08-07T20:18:35.332Z,26.33
2022-08-07T20:21:14.469Z,27.62
2022-08-07T20:23:57.973Z,27.52
2022-08-07T20:26:38.626Z,27.90
2022-08-07T20:29:48.430Z,28.14
2022-08-07T20:32:40.319Z,28.05
2022-08-07T20:35:16.285Z,28.61
2022-08-07T20:37:59.665Z,28.67
2022-08-07T20:40:33.852Z,28.90
2022-08-07T20:43:14.462Z,28.42
2022-08-07T20:46:25.958Z,28.94
2022-08-07T20:49:55.186Z,29.00
2022-08-07T20:51:35.761Z,28.79
2022-08-07T20:54:29.946Z,28.91
2022-08-07T20:57:11.057Z,29.31
2022-08-07T21:00:06.501Z,29.19
2022-08-07T21:02:59.134Z,29.18
2022-08-07T21:05:59.170Z,29.56
2022-08-07T21:09:07.564Z,29.59
2022-08-07T21:11:53.310Z,29.63
2022-08-07T21:14:48.374Z,30.17
2022-08-07T21:18:02.841Z,29.74
2022-08-07T21:20:30.194Z,28.65
2022-08-07T21:23:08.786Z,30.31
2022-08-07T21:25:45.026Z,29.74
2022-08-07T21:28:54.271Z,28.56
2022-08-07T21:32:42.363Z,30.57
2022-08-07T21:35:02.260Z,30.34
2022-08-07T21:37:57.758Z,30.34
2022-08-07T21:40:51.182Z,30.71
2022-08-07T21:43:25.407Z,30.67
2022-08-07T21:46:32.411Z,30.98
2022-08-07T21:50:02.114Z,31.09
2022-08-07T21:52:54.395Z,30.86
2022-08-07T21:55:32.511Z,31.14
2022-08-07T21:58:32.301Z,30.73
2022-08-07T22:01:14.074Z,30.73
2022-08-07T22:04:10.408Z,30.73
2022-08-07T22:07:07.752Z,30.72
2022-08-07T22:09:53.863Z,30.89
2022-08-07T22:12:57.379Z,31.47
2022-08-07T22:16:43.304Z,31.23
2022-08-07T22:18:49.172Z,31.27
2022-08-07T22:21:21.258Z,31.47
2022-08-07T22:23:57.731Z,30.71
2022-08-07T22:26:57.313Z,31.23
2022-08-07T22:29:52.862Z,31.34
2022-08-07T22:32:50.710Z,30.84
2022-08-07T22:35:18.265Z,31.17
2022-08-07T22:38:03.555Z,31.40
2022-08-07T22:41:03.891Z,31.44
2022-08-07T22:44:13.885Z,31.07
2022-08-07T22:47:09.427Z,31.70
2022-08-07T22:49:54.125Z,30.74
2022-08-07T22:52:37.570Z,31.79
2022-08-07T22:55:22.554Z,30.29
2022-08-07T22:57:51.104Z,32.04
2022-08-07T23:00:28.378Z,31.96
2022-08-07T23:03:58.418Z,31.92
2022-08-07T23:06:29.740Z,31.16
2022-08-07T23:10:04.562Z,32.21
2022-08-07T23:12:57.187Z,32.14
2022-08-07T23:16:06.912Z,31.84
2022-08-07T23:18:33.757Z,32.66
2022-08-07T23:21:16.180Z,32.79
2022-08-07T23:24:04.559Z,32.45
2022-08-07T23:26:50.575Z,32.49
2022-08-07T23:30:39.591Z,32.16
2022-08-07T23:34:21.275Z,32.68
2022-08-07T23:36:04.491Z,31.78
2022-08-07T23:38:55.062Z,31.51
2022-08-07T23:42:01.398Z,32.66
2022-08-07T23:44:58.170Z,32.63
2022-08-07T23:47:47.923Z,32.33
2022-08-07T23:50:33.956Z,32.93
2022-08-07T23:53:51.091Z,32.70
2022-08-07T23:56:37.970Z,32.75
